Time;durP1;ratioP1;P1;durP2;ratioP2;P2;SDS_P1;SDS_P2;PMS_P1;PMS_P2;Temp;Humidity;BMP_temperature;BMP_pressure;BME280_temperature;BME280_humidity;BME280_pressure;Samples;Min_cycle;Max_cycle;Signal;HPM_P1;HPM_P2
2023/01/19 00:01:57;;;;;;;2.83;0.67;;;;;;;13.97;73.79;94745.00;5073098;28;20498;-57
2023/01/19 00:04:26;;;;;;;0.83;0.83;;;;;;;14.00;73.04;94753.16;5073474;28;20436;-57
2023/01/19 00:06:55;;;;;;;4.90;1.77;;;;;;;13.98;73.03;94757.22;5073824;28;20450;-57
2023/01/19 00:09:23;;;;;;;4.07;1.47;;;;;;;13.87;72.56;94745.22;5073233;28;20439;-57
2023/01/19 00:11:51;;;;;;;1.77;1.67;;;;;;;13.96;71.97;94754.84;5073286;28;20493;-57
2023/01/19 00:14:20;;;;;;;0.87;0.40;;;;;;;14.08;71.32;94756.97;5073449;28;20449;-57
2023/01/19 00:16:48;;;;;;;3.23;2.93;;;;;;;13.96;72.04;94754.84;5073404;28;20473;-57
2023/01/19 00:19:16;;;;;;;10.93;1.43;;;;;;;14.05;71.87;94759.47;5073201;28;20465;-57
2023/01/19 00:21:46;;;;;;;1.53;1.17;;;;;;;13.91;71.43;94709.69;5073297;28;20437;-57
2023/01/19 00:24:14;;;;;;;3.60;2.33;;;;;;;14.13;71.19;94756.84;5073297;28;20800;-57
2023/01/19 00:26:43;;;;;;;0.67;0.60;;;;;;;14.24;71.44;94758.19;5073489;28;20422;-57
2023/01/19 00:29:11;;;;;;;2.97;0.50;;;;;;;14.13;71.22;94740.88;5073131;28;20982;-57
2023/01/19 00:31:40;;;;;;;0.67;0.67;;;;;;;14.21;70.48;94758.00;5073358;28;20437;-58
2023/01/19 00:34:09;;;;;;;0.30;0.20;;;;;;;14.20;70.31;94769.75;5073174;28;20467;-58
2023/01/19 00:36:37;;;;;;;4.53;4.13;;;;;;;14.02;71.17;94763.50;5072906;28;20461;-58
2023/01/19 00:39:07;;;;;;;1.47;1.47;;;;;;;13.65;70.74;94697.31;5072753;28;20473;-58
2023/01/19 00:44:21;;;;;;;0.30;0.20;;;;;;;14.24;71.18;94768.06;5072601;28;20522;-58
2023/01/19 00:46:49;;;;;;;0.97;0.97;;;;;;;14.22;71.17;94762.25;5072528;28;20449;-58
2023/01/19 00:49:18;;;;;;;4.73;0.87;;;;;;;14.17;71.56;94765.81;5072463;28;20521;-58
2023/01/19 00:51:46;;;;;;;1.10;1.10;;;;;;;14.02;72.25;94774.97;5072812;28;20440;-58
2023/01/19 00:54:15;;;;;;;0.30;0.20;;;;;;;14.13;72.16;94769.38;5072459;28;20741;-58
2023/01/19 00:56:44;;;;;;;8.33;1.37;;;;;;;14.01;72.86;94769.94;5072543;28;20849;-58
2023/01/19 00:59:12;;;;;;;0.40;0.40;;;;;;;14.02;73.45;94764.31;5072358;28;20483;-58
2023/01/19 01:01:40;;;;;;;0.30;0.20;;;;;;;14.02;73.52;94764.31;5072345;28;20437;-58
2023/01/19 01:04:13;;;;;;;7.27;1.63;;;;;;;13.97;73.76;94751.09;5072652;28;20434;-58
2023/01/19 01:06:41;;;;;;;1.20;1.20;;;;;;;13.74;74.83;94768.19;5072397;28;20444;-58
2023/01/19 01:09:11;;;;;;;0.70;0.70;;;;;;;13.80;74.63;94760.84;5072694;28;20430;-58
2023/01/19 01:11:42;;;;;;;2.10;1.90;;;;;;;13.55;75.30;94756.91;5072614;28;20505;-58
2023/01/19 01:14:12;;;;;;;0.83;0.83;;;;;;;13.45;75.29;94719.88;5071982;28;20432;-58
2023/01/19 01:16:41;;;;;;;5.83;1.23;;;;;;;13.65;75.08;94755.88;5072209;28;20807;-58
2023/01/19 01:19:09;;;;;;;7.50;0.63;;;;;;;13.59;74.34;94736.56;5072565;28;20436;-58
2023/01/19 01:21:39;;;;;;;16.43;3.80;;;;;;;13.64;74.42;94748.97;5072238;28;20426;-58
2023/01/19 01:24:08;;;;;;;2.07;1.97;;;;;;;13.49;74.87;94736.00;5071440;28;20461;-58
2023/01/19 01:26:37;;;;;;;0.53;0.50;;;;;;;13.76;74.14;94744.69;5072106;28;20422;-58
2023/01/19 01:29:07;;;;;;;4.00;1.70;;;;;;;13.79;73.71;94749.41;5071942;28;20457;-58
2023/01/19 01:31:35;;;;;;;16.33;0.43;;;;;;;13.91;73.19;94741.66;5072124;28;20794;-58
2023/01/19 01:34:04;;;;;;;1.27;1.27;;;;;;;14.02;72.32;94742.19;5072181;28;20483;-58
2023/01/19 01:36:32;;;;;;;6.73;2.80;;;;;;;13.90;72.23;94745.44;5072166;28;20803;-58
2023/01/19 01:39:01;;;;;;;0.57;0.47;;;;;;;13.74;72.17;94738.88;5071896;28;20506;-58
2023/01/19 01:41:29;;;;;;;2.50;1.67;;;;;;;13.44;71.87;94682.88;5071640;28;20552;-58
2023/01/19 01:44:00;;;;;;;0.50;0.43;;;;;;;13.50;71.78;94713.63;5071685;28;20422;-57
2023/01/19 01:46:31;;;;;;;0.50;0.30;;;;;;;13.92;71.74;94764.56;5071590;28;20429;-58
2023/01/19 01:49:05;;;;;;;1.90;1.70;;;;;;;13.85;71.16;94753.53;5071976;28;20479;-58
2023/01/19 01:51:38;;;;;;;6.03;1.37;;;;;;;13.86;71.39;94765.00;5071471;28;20556;-58
2023/01/19 01:54:13;;;;;;;14.53;2.67;;;;;;;13.95;71.06;94763.16;5071666;28;21002;-57
2023/01/19 01:56:44;;;;;;;0.60;0.43;;;;;;;13.83;71.78;94746.94;5071727;28;20480;-57
2023/01/19 01:59:24;;;;;;;2.00;1.90;;;;;;;13.85;70.93;94753.53;5071543;28;20993;-58
2023/01/19 02:04:50;;;;;;;8.97;4.03;;;;;;;13.57;72.03;94744.09;5071420;28;20426;-57
2023/01/19 02:15:43;;;;;;;1.80;0.70;;;;;;;13.47;73.14;94756.81;5071584;28;20433;-58
2023/01/19 02:18:12;;;;;;;4.63;0.87;;;;;;;13.19;73.79;94729.50;5071831;28;20913;-58
2023/01/19 02:20:45;;;;;;;11.70;0.80;;;;;;;13.51;72.99;94742.59;5071548;28;20490;-58
2023/01/19 02:23:20;;;;;;;1.30;1.30;;;;;;;13.28;73.86;94759.66;5071412;28;20425;-58
2023/01/19 02:25:50;;;;;;;1.17;0.30;;;;;;;13.35;74.16;94771.47;5071379;28;20490;-59
2023/01/19 02:28:18;;;;;;;3.17;2.87;;;;;;;13.16;74.54;94756.69;5070988;28;20444;-58
2023/01/19 02:30:47;;;;;;;4.30;0.50;;;;;;;12.76;75.02;94697.13;5071304;28;20426;-58
2023/01/19 02:33:15;;;;;;;0.50;0.40;;;;;;;13.21;75.40;94751.25;5071498;28;20436;-58
2023/01/19 02:35:45;;;;;;;1.37;1.37;;;;;;;13.18;75.75;94743.91;5073669;28;20433;-58
2023/01/19 02:38:16;;;;;;;0.30;0.20;;;;;;;13.15;75.82;94755.94;5075008;28;20432;-58
2023/01/19 02:40:46;;;;;;;0.97;0.97;;;;;;;13.14;75.89;94759.66;5075073;28;20480;-58
2023/01/19 02:43:18;;;;;;;0.40;0.30;;;;;;;13.13;74.92;94762.63;5075129;28;20430;-58
2023/01/19 02:45:47;;;;;;;6.30;2.60;;;;;;;13.19;75.29;94756.09;5074948;28;20469;-58
2023/01/19 02:48:16;;;;;;;2.20;0.63;;;;;;;13.13;75.26;94741.34;5075095;28;20925;-58
2023/01/19 02:50:48;;;;;;;2.30;1.13;;;;;;;13.23;74.41;94749.88;5074915;28;20488;-58
2023/01/19 02:53:33;;;;;;;0.87;0.73;;;;;;;13.28;74.74;94741.03;5074896;28;20461;-58
2023/01/19 02:56:23;;;;;;;1.30;1.20;;;;;;;13.21;74.29;94748.59;5074876;28;20453;-58
2023/01/19 02:59:01;;;;;;;6.40;1.17;;;;;;;13.14;74.48;94750.88;5073929;28;20434;-58
2023/01/19 03:01:40;;;;;;;4.00;0.40;;;;;;;13.20;74.73;94763.00;5074659;28;20475;-58
2023/01/19 03:04:22;;;;;;;0.83;0.83;;;;;;;13.10;75.59;94760.56;5074178;28;20440;-58
2023/01/19 03:06:56;;;;;;;38.77;2.10;;;;;;;13.21;74.82;94744.06;5074732;28;20831;-58
2023/01/19 03:09:31;;;;;;;4.30;2.00;;;;;;;13.03;75.59;94760.16;5074964;28;20426;-58
2023/01/19 03:12:05;;;;;;;3.53;1.83;;;;;;;13.26;75.40;94754.63;5074527;28;20575;-58
2023/01/19 03:14:42;;;;;;;0.30;0.20;;;;;;;12.93;75.93;94763.03;5074529;28;20432;-58
2023/01/19 03:17:12;;;;;;;0.30;0.20;;;;;;;12.97;76.05;94767.44;5074453;28;20444;-58
2023/01/19 03:19:43;;;;;;;2.13;2.13;;;;;;;12.98;75.48;94770.91;5074471;28;20520;-58
2023/01/19 03:22:17;;;;;;;10.43;2.40;;;;;;;13.00;75.38;94768.72;5074209;28;20516;-58
2023/01/19 03:24:47;;;;;;;1.03;0.73;;;;;;;13.14;75.00;94766.84;5074432;28;20421;-58
2023/01/19 03:27:24;;;;;;;0.50;0.50;;;;;;;13.19;75.19;94777.38;5074092;28;20463;-58
2023/01/19 03:29:57;;;;;;;0.40;0.30;;;;;;;13.01;75.56;94765.75;5074543;28;20428;-58
2023/01/19 03:32:32;;;;;;;2.20;2.10;;;;;;;13.03;74.97;94747.63;5073994;28;20433;-58
2023/01/19 03:35:05;;;;;;;13.60;0.73;;;;;;;13.06;75.59;94780.81;5074164;28;20425;-58
2023/01/19 03:37:37;;;;;;;8.53;0.47;;;;;;;13.19;74.38;94761.44;5074124;28;20464;-57
2023/01/19 03:40:07;;;;;;;7.70;1.40;;;;;;;13.24;74.30;94763.97;5074011;28;20903;-57
2023/01/19 03:42:37;;;;;;;0.90;0.90;;;;;;;13.13;74.43;94767.97;5073957;28;20485;-57
2023/01/19 03:45:11;;;;;;;1.13;0.60;;;;;;;13.16;74.61;94768.13;5073844;28;20433;-58
2023/01/19 03:47:40;;;;;;;2.10;0.77;;;;;;;13.10;75.30;94748.06;5073312;28;20501;-58
2023/01/19 03:50:14;;;;;;;5.20;1.90;;;;;;;12.90;75.85;94732.50;5073586;28;20480;-58
2023/01/19 03:52:42;;;;;;;0.83;0.83;;;;;;;13.20;75.44;94747.84;5073721;28;20429;-58
2023/01/19 03:55:12;;;;;;;5.13;2.40;;;;;;;13.08;75.84;94752.88;5074005;28;20437;-58
2023/01/19 03:57:40;;;;;;;13.33;0.70;;;;;;;12.97;77.06;94750.69;5073764;28;20544;-58
2023/01/19 04:00:12;;;;;;;0.60;0.50;;;;;;;12.98;78.11;94741.66;5073966;28;20517;-58
2023/01/19 04:02:40;;;;;;;0.70;0.70;;;;;;;12.98;78.21;94736.31;5074078;28;20823;-58
2023/01/19 04:05:09;;;;;;;5.90;0.47;;;;;;;12.98;78.84;94738.97;5073708;28;20422;-58
2023/01/19 04:07:37;;;;;;;3.03;0.93;;;;;;;12.97;79.27;94737.41;5072871;28;20452;-58
2023/01/19 04:10:11;;;;;;;4.23;1.73;;;;;;;13.00;79.69;94745.59;5072863;28;20524;-58
2023/01/19 04:12:39;;;;;;;41.57;3.57;;;;;;;12.97;79.90;94738.19;5073020;28;20444;-58
2023/01/19 04:15:08;;;;;;;0.60;0.50;;;;;;;12.98;79.27;94749.63;5073074;28;20516;-58
2023/01/19 04:17:38;;;;;;;3.60;0.63;;;;;;;12.98;79.31;94755.72;5073383;28;20430;-58
2023/01/19 04:20:08;;;;;;;35.00;1.90;;;;;;;13.02;79.38;94758.56;5073455;28;20516;-58
2023/01/19 04:22:37;;;;;;;1.63;1.50;;;;;;;13.04;79.71;94764.38;5073695;28;20485;-58
2023/01/19 04:25:07;;;;;;;0.40;0.40;;;;;;;12.98;80.11;94758.38;5073354;28;20437;-58
2023/01/19 04:27:36;;;;;;;12.73;1.20;;;;;;;12.93;80.64;94771.75;5073021;28;20953;-58
2023/01/19 04:30:05;;;;;;;0.70;0.43;;;;;;;12.91;81.27;94763.31;5073178;28;20440;-58
2023/01/19 04:32:33;;;;;;;2.00;0.63;;;;;;;12.61;81.41;94730.13;5073052;28;20418;-58
2023/01/19 04:35:03;;;;;;;3.20;3.00;;;;;;;12.87;81.74;94788.13;5072893;28;20893;-58
2023/01/19 04:37:31;;;;;;;7.53;2.87;;;;;;;12.75;81.95;94762.81;5073159;28;20426;-58
2023/01/19 04:40:00;;;;;;;2.03;1.67;;;;;;;12.88;81.21;94782.50;5073088;28;20425;-58
2023/01/19 04:42:28;;;;;;;1.60;1.50;;;;;;;12.83;81.13;94779.16;5072487;28;20846;-58
2023/01/19 04:44:56;;;;;;;0.97;0.97;;;;;;;12.88;82.18;94784.38;5071674;28;20434;-58
2023/01/19 04:47:25;;;;;;;3.40;1.97;;;;;;;12.59;83.56;94790.00;5072849;28;20780;-59
2023/01/19 04:49:53;;;;;;;6.50;4.20;;;;;;;12.66;84.22;94785.06;5072152;28;20476;-59
2023/01/19 04:52:22;;;;;;;0.70;0.70;;;;;;;12.80;83.53;94796.50;5072579;28;20426;-59
2023/01/19 04:54:51;;;;;;;0.30;0.30;;;;;;;12.65;84.07;94786.94;5071833;28;20434;-59
2023/01/19 04:57:19;;;;;;;10.40;2.27;;;;;;;12.28;85.60;94765.81;5072394;28;20425;-59
2023/01/19 04:59:48;;;;;;;0.70;0.70;;;;;;;12.64;85.37;94798.66;5071235;28;20710;-59
2023/01/19 05:02:16;;;;;;;0.43;0.43;;;;;;;12.48;87.36;94800.00;5072256;28;20590;-59
2023/01/19 05:04:44;;;;;;;7.87;1.90;;;;;;;12.46;86.50;94804.03;5072075;28;20533;-59
2023/01/19 05:07:13;;;;;;;4.83;1.13;;;;;;;12.22;88.75;94811.38;5071800;28;20516;-58
2023/01/19 05:09:43;;;;;;;9.53;1.07;;;;;;;12.42;87.41;94795.84;5071947;28;20513;-58
2023/01/19 05:12:11;;;;;;;0.40;0.30;;;;;;;12.00;90.08;94796.84;5071562;28;20484;-58
2023/01/19 05:14:40;;;;;;;0.50;0.30;;;;;;;12.21;88.09;94793.84;5072104;28;20509;-58
2023/01/19 05:17:08;;;;;;;0.40;0.30;;;;;;;12.27;86.62;94800.69;5071472;28;20432;-59
2023/01/19 05:19:37;;;;;;;12.27;1.90;;;;;;;12.18;85.27;94773.19;5071458;28;20440;-59
2023/01/19 05:22:06;;;;;;;0.50;0.50;;;;;;;12.52;83.24;94802.88;5070806;28;20911;-59
2023/01/19 05:24:34;;;;;;;37.20;3.40;;;;;;;12.33;83.65;94794.97;5071604;28;20432;-58
2023/01/19 05:27:04;;;;;;;4.87;2.10;;;;;;;12.43;82.56;94797.44;5071632;28;20441;-58
2023/01/19 05:29:33;;;;;;;3.43;1.53;;;;;;;12.48;81.35;94815.97;5071061;28;20433;-60
2023/01/19 05:32:01;;;;;;;5.50;2.83;;;;;;;12.59;79.92;94820.03;5071236;28;20957;-60
2023/01/19 05:34:29;;;;;;;3.67;0.77;;;;;;;12.58;79.51;94810.47;5071239;28;20432;-59
2023/01/19 05:36:58;;;;;;;0.47;0.47;;;;;;;12.49;80.04;94806.91;5071363;28;20476;-59
2023/01/19 05:39:27;;;;;;;2.13;1.33;;;;;;;12.54;79.56;94816.66;5071786;28;20814;-59
2023/01/19 05:41:55;;;;;;;0.67;0.67;;;;;;;12.55;80.31;94811.03;5071456;28;21156;-59
2023/01/19 05:44:25;;;;;;;0.97;0.97;;;;;;;12.72;79.88;94824.56;5071024;28;20963;-59
2023/01/19 05:46:54;;;;;;;0.53;0.53;;;;;;;12.89;78.98;94826.66;5071262;28;20459;-59
2023/01/19 05:49:22;;;;;;;1.37;1.37;;;;;;;12.80;78.21;94838.28;5071211;28;20482;-60
2023/01/19 05:51:51;;;;;;;0.40;0.40;;;;;;;12.75;79.16;94831.94;5071568;28;20431;-59
2023/01/19 05:54:19;;;;;;;3.67;1.67;;;;;;;12.71;80.15;94841.59;5071709;28;20449;-60
2023/01/19 05:56:47;;;;;;;0.40;0.30;;;;;;;12.77;81.78;94845.72;5071004;28;20464;-59
2023/01/19 05:59:22;;;;;;;4.20;3.40;;;;;;;12.68;82.12;94828.88;5071263;28;20864;-59
2023/01/19 06:01:53;;;;;;;1.60;1.43;;;;;;;12.33;84.80;94832.16;5071013;28;20496;-59
2023/01/19 06:04:21;;;;;;;1.40;0.40;;;;;;;12.17;87.66;94857.41;5071292;28;20924;-59
2023/01/19 06:06:50;;;;;;;0.40;0.40;;;;;;;12.37;87.07;94856.31;5071174;28;20425;-59
2023/01/19 06:09:18;;;;;;;1.03;0.93;;;;;;;12.35;88.04;94834.53;5070634;28;20490;-59
2023/01/19 06:11:47;;;;;;;4.63;0.70;;;;;;;12.43;88.09;94844.50;5071189;28;20943;-59
2023/01/19 06:14:15;;;;;;;0.50;0.40;;;;;;;12.50;87.46;94845.69;5071059;28;20527;-59
2023/01/19 06:16:44;;;;;;;33.13;1.20;;;;;;;12.55;87.12;94837.63;5071383;28;20449;-59
2023/01/19 06:19:13;;;;;;;11.73;2.00;;;;;;;12.50;87.60;94823.63;5071153;28;20975;-60
2023/01/19 06:21:48;;;;;;;2.73;1.77;;;;;;;12.65;88.05;94848.09;5071328;28;20429;-59
2023/01/19 06:24:16;;;;;;;12.60;1.33;;;;;;;12.89;86.37;94847.13;5071450;28;20837;-59
2023/01/19 06:26:45;;;;;;;0.40;0.20;;;;;;;12.60;88.16;94845.50;5070597;28;20464;-59
2023/01/19 06:29:13;;;;;;;1.07;0.50;;;;;;;12.83;86.56;94848.28;5070998;28;20789;-59
2023/01/19 06:31:42;;;;;;;0.30;0.30;;;;;;;12.88;87.05;94864.16;5070964;28;21055;-58
2023/01/19 06:34:10;;;;;;;0.50;0.50;;;;;;;13.10;85.38;94849.16;5071129;28;20429;-59
2023/01/19 06:36:40;;;;;;;1.07;1.07;;;;;;;13.12;84.82;94832.88;5070591;28;20439;-59
2023/01/19 06:39:09;;;;;;;9.57;1.33;;;;;;;13.01;85.35;94844.78;5071109;28;20561;-58
2023/01/19 06:41:38;;;;;;;1.90;0.40;;;;;;;13.33;84.38;94852.69;5070364;28;21241;-59
2023/01/19 06:44:06;;;;;;;1.90;1.23;;;;;;;13.24;85.70;94849.13;5071171;28;20477;-58
2023/01/19 06:46:35;;;;;;;7.47;2.30;;;;;;;13.68;82.79;94851.16;5070504;28;20450;-58
2023/01/19 06:49:04;;;;;;;7.10;1.63;;;;;;;13.64;81.83;94858.16;5071184;28;20816;-56
2023/01/19 06:51:32;;;;;;;1.20;1.10;;;;;;;13.79;80.76;94829.31;5070647;28;21007;-58
2023/01/19 06:54:02;;;;;;;1.23;1.23;;;;;;;14.22;79.00;94858.19;5070409;28;20924;-59
2023/01/19 06:56:30;;;;;;;1.33;0.80;;;;;;;13.73;79.55;94859.84;5070774;28;20429;-59
2023/01/19 06:58:58;;;;;;;0.50;0.40;;;;;;;13.98;79.91;94864.59;5071129;28;20421;-59
2023/01/19 07:01:27;;;;;;;2.30;2.10;;;;;;;13.79;78.93;94855.94;5070745;28;20429;-59
2023/01/19 07:03:55;;;;;;;0.40;0.40;;;;;;;13.06;81.19;94810.09;5070655;28;20552;-59
2023/01/19 07:06:24;;;;;;;6.83;1.10;;;;;;;13.61;80.83;94864.09;5070802;28;20914;-59
2023/01/19 07:08:52;;;;;;;1.40;0.40;;;;;;;13.80;79.97;94873.53;5070702;28;20513;-58
2023/01/19 07:11:22;;;;;;;1.30;1.20;;;;;;;13.24;78.48;94814.53;5070391;28;20458;-59
2023/01/19 07:13:59;;;;;;;0.97;0.97;;;;;;;13.17;79.09;94865.50;5070308;28;20429;-58
2023/01/19 07:16:28;;;;;;;7.83;2.10;;;;;;;13.19;77.60;94857.22;5070580;28;20429;-58
2023/01/19 07:18:56;;;;;;;1.63;1.60;;;;;;;13.33;76.86;94850.81;5070266;28;20437;-59
2023/01/19 07:21:24;;;;;;;0.70;0.70;;;;;;;13.36;76.47;94854.75;5070620;28;20430;-59
2023/01/19 07:23:56;;;;;;;11.13;1.57;;;;;;;13.57;75.11;94842.59;5073693;28;20472;-59
2023/01/19 07:26:26;;;;;;;2.03;1.77;;;;;;;13.17;74.41;94771.59;5074106;28;20847;-59
2023/01/19 07:28:55;;;;;;;0.50;0.50;;;;;;;13.65;73.95;94838.44;5073763;28;20524;-59
2023/01/19 07:31:23;;;;;;;0.70;0.67;;;;;;;13.74;73.66;94845.41;5074306;28;20429;-59
2023/01/19 07:33:51;;;;;;;2.13;0.53;;;;;;;13.74;73.50;94837.41;5073935;28;21018;-59
2023/01/19 07:36:20;;;;;;;2.47;2.13;;;;;;;13.78;73.27;94837.63;5074064;28;20438;-59
2023/01/19 07:38:48;;;;;;;48.53;1.60;;;;;;;13.76;74.00;94827.25;5073889;28;20855;-59
2023/01/19 07:41:16;;;;;;;4.43;2.20;;;;;;;13.73;74.70;94835.06;5074082;28;20432;-60
2023/01/19 07:43:46;;;;;;;10.97;2.70;;;;;;;13.63;75.89;94820.09;5073468;28;20513;-60
2023/01/19 07:46:14;;;;;;;4.13;1.90;;;;;;;13.63;77.00;94824.63;5073752;28;20446;-60
2023/01/19 07:48:43;;;;;;;1.53;1.47;;;;;;;13.67;76.47;94822.94;5073511;28;20430;-60
2023/01/19 07:51:16;;;;;;;0.93;0.90;;;;;;;13.70;76.58;94815.16;5073336;28;20534;-60
2023/01/19 07:53:45;;;;;;;1.33;0.80;;;;;;;13.70;76.52;94814.34;5073548;28;20441;-60
2023/01/19 07:56:13;;;;;;;6.63;3.37;;;;;;;13.58;77.49;94817.56;5073552;28;20449;-60
2023/01/19 07:58:41;;;;;;;1.37;1.27;;;;;;;13.44;80.00;94810.66;5073780;28;20517;-59
2023/01/19 08:01:13;;;;;;;0.60;0.50;;;;;;;13.38;81.89;94794.03;5073709;28;20517;-60
2023/01/19 08:03:42;;;;;;;16.73;1.00;;;;;;;13.36;82.25;94814.81;5073194;28;20497;-60
2023/01/19 08:06:16;;;;;;;1.23;0.93;;;;;;;13.43;82.79;94819.75;5073440;28;20525;-59
2023/01/19 08:08:45;;;;;;;2.13;0.77;;;;;;;13.30;84.05;94808.03;5073069;28;20895;-59
2023/01/19 08:11:14;;;;;;;0.60;0.60;;;;;;;13.29;83.67;94793.94;5073389;28;20444;-60
2023/01/19 08:13:42;;;;;;;12.30;1.40;;;;;;;13.26;84.58;94826.47;5073174;28;20433;-59
2023/01/19 08:16:12;;;;;;;2.83;0.30;;;;;;;13.23;85.73;94835.03;5073131;28;20526;-59
2023/01/19 08:18:40;;;;;;;4.23;2.00;;;;;;;13.31;87.67;94820.25;5073405;28;20505;-59
2023/01/19 08:21:08;;;;;;;4.50;1.23;;;;;;;13.28;87.64;94818.97;5073283;28;20512;-60
2023/01/19 08:23:37;;;;;;;7.63;2.13;;;;;;;13.13;86.54;94821.94;5073278;28;20552;-60
2023/01/19 08:26:19;;;;;;;1.57;0.90;;;;;;;13.28;88.56;94823.53;5073330;28;20460;-61
2023/01/19 08:28:47;;;;;;;29.77;1.87;;;;;;;13.20;89.74;94824.22;5072716;28;20429;-60
2023/01/19 08:31:17;;;;;;;6.03;2.00;;;;;;;13.28;88.33;94815.53;5073244;28;20861;-60
2023/01/19 08:33:49;;;;;;;2.73;2.63;;;;;;;13.34;88.46;94827.63;5072532;28;20470;-60
2023/01/19 08:36:17;;;;;;;1.40;0.87;;;;;;;13.57;88.12;94825.81;5072384;28;20817;-61
2023/01/19 08:38:46;;;;;;;0.70;0.37;;;;;;;13.60;89.27;94823.38;5072806;28;20491;-60
2023/01/19 08:41:15;;;;;;;11.00;1.50;;;;;;;13.49;90.22;94839.84;5072460;28;20442;-61
2023/01/19 08:43:44;;;;;;;17.23;3.87;;;;;;;13.55;89.15;94826.13;5072576;28;20469;-61
2023/01/19 08:46:15;;;;;;;1.50;1.40;;;;;;;13.28;85.90;94797.69;5072194;28;20487;-59
2023/01/19 08:48:46;;;;;;;1.63;1.60;;;;;;;13.71;85.13;94838.00;5072427;28;20434;-59
2023/01/19 08:51:15;;;;;;;0.67;0.60;;;;;;;13.45;84.19;94812.25;5072098;28;20468;-60
2023/01/19 08:53:43;;;;;;;1.43;1.07;;;;;;;13.72;84.19;94852.91;5072394;28;20433;-60
2023/01/19 08:56:12;;;;;;;3.20;3.00;;;;;;;13.80;83.21;94844.22;5071720;28;20461;-60
2023/01/19 08:58:41;;;;;;;10.23;0.97;;;;;;;13.73;83.46;94854.50;5072297;28;20438;-60
2023/01/19 09:01:12;;;;;;;1.10;1.10;;;;;;;13.78;84.30;94843.75;5072478;28;20871;-60
2023/01/19 09:03:41;;;;;;;8.23;1.53;;;;;;;13.65;84.32;94820.59;5072384;28;20481;-60
2023/01/19 09:06:13;;;;;;;1.13;1.13;;;;;;;13.66;83.65;94798.19;5072080;28;20858;-61
2023/01/19 09:08:41;;;;;;;14.00;2.43;;;;;;;13.80;83.49;94814.13;5072183;28;20430;-61
2023/01/19 09:11:11;;;;;;;0.77;0.77;;;;;;;13.78;83.65;94827.75;5072155;28;20521;-61
2023/01/19 09:13:40;;;;;;;4.30;1.13;;;;;;;13.85;83.15;94835.31;5072133;28;20453;-62
2023/01/19 09:16:11;;;;;;;0.73;0.73;;;;;;;13.83;83.97;94840.97;5072153;28;20438;-62
2023/01/19 09:18:39;;;;;;;6.33;1.20;;;;;;;13.91;84.01;94842.13;5072182;28;20961;-61
2023/01/19 09:21:10;;;;;;;22.23;2.07;;;;;;;13.96;83.86;94828.69;5071957;28;20440;-61
2023/01/19 09:23:39;;;;;;;3.03;1.97;;;;;;;13.96;84.65;94840.09;5071852;28;20508;-61
2023/01/19 09:26:07;;;;;;;4.63;4.43;;;;;;;13.99;84.56;94823.53;5071827;28;20433;-61
2023/01/19 09:28:37;;;;;;;0.90;0.90;;;;;;;14.10;82.43;94833.94;5071792;28;21126;-61
2023/01/19 09:31:06;;;;;;;11.40;0.53;;;;;;;14.14;82.00;94827.69;5072030;28;20457;-61
2023/01/19 09:33:35;;;;;;;2.50;0.87;;;;;;;14.25;81.42;94828.25;5071694;28;20418;-61
2023/01/19 09:36:04;;;;;;;5.03;2.33;;;;;;;14.28;80.29;94801.00;5071992;28;20897;-61
2023/01/19 09:38:34;;;;;;;4.77;3.30;;;;;;;14.40;80.10;94822.56;5071998;28;20444;-61
2023/01/19 09:41:03;;;;;;;1.57;0.50;;;;;;;14.37;77.74;94809.88;5071471;28;20827;-60
2023/01/19 09:43:39;;;;;;;15.57;1.50;;;;;;;14.53;76.98;94805.72;5071274;28;20433;-60
2023/01/19 09:46:14;;;;;;;5.23;2.60;;;;;;;14.54;75.51;94813.44;5070909;28;20541;-60
2023/01/19 09:48:46;;;;;;;0.40;0.40;;;;;;;14.65;75.31;94805.94;5071260;28;20540;-60
2023/01/19 09:51:20;;;;;;;0.80;0.50;;;;;;;14.56;76.12;94789.91;5070701;28;20465;-60
2023/01/19 09:54:00;;;;;;;0.50;0.43;;;;;;;14.53;76.23;94803.84;5071912;28;20436;-60
2023/01/19 09:56:30;;;;;;;0.40;0.30;;;;;;;14.25;75.62;94761.63;5072840;28;20433;-60
2023/01/19 09:59:00;;;;;;;3.90;1.17;;;;;;;14.59;75.76;94778.63;5072383;28;21015;-60
2023/01/19 10:01:48;;;;;;;3.63;0.53;;;;;;;14.53;74.19;94787.84;5071320;28;20452;-61
2023/01/19 10:04:38;;;;;;;1.70;1.60;;;;;;;14.77;72.84;94771.50;5071577;28;20480;-60
2023/01/19 10:07:13;;;;;;;3.03;0.50;;;;;;;14.66;74.04;94751.50;5071101;28;20481;-61
2023/01/19 10:09:56;;;;;;;8.33;1.07;;;;;;;14.64;70.15;94719.03;5070812;28;20512;-61
2023/01/19 10:12:36;;;;;;;3.07;2.20;;;;;;;14.99;70.91;94749.25;5070685;28;20802;-61
2023/01/19 10:15:16;;;;;;;0.63;0.63;;;;;;;14.95;72.24;94746.41;5070672;28;20429;-62
2023/01/19 10:17:53;;;;;;;6.00;2.00;;;;;;;15.04;68.77;94757.91;5071318;28;20488;-61
2023/01/19 10:20:27;;;;;;;0.83;0.83;;;;;;;15.12;68.92;94738.47;5071284;28;20435;-60
2023/01/19 10:22:58;;;;;;;19.17;1.60;;;;;;;14.55;69.71;94672.84;5071342;28;20873;-61
2023/01/19 10:25:29;;;;;;;5.73;0.60;;;;;;;14.69;69.88;94683.41;5071526;28;20461;-61
2023/01/19 10:28:00;;;;;;;1.07;1.07;;;;;;;15.02;69.31;94738.75;5071474;28;20434;-62
2023/01/19 10:30:29;;;;;;;1.17;1.17;;;;;;;14.93;68.37;94729.94;5071379;28;20846;-62
2023/01/19 10:32:58;;;;;;;0.47;0.33;;;;;;;14.93;67.55;94739.81;5071108;28;20434;-62
2023/01/19 10:35:26;;;;;;;0.60;0.60;;;;;;;14.92;68.10;94717.72;5071252;28;20466;-62
2023/01/19 10:37:58;;;;;;;1.00;1.00;;;;;;;14.88;69.35;94719.41;5071333;28;20462;-61
2023/01/19 10:40:33;;;;;;;0.90;0.90;;;;;;;14.90;69.82;94725.22;5070959;28;20512;-62
2023/01/19 10:43:01;;;;;;;0.63;0.63;;;;;;;14.92;69.18;94712.38;5070837;28;20469;-62
2023/01/19 10:45:31;;;;;;;0.63;0.63;;;;;;;14.85;68.43;94712.00;5071045;28;20527;-61
2023/01/19 10:48:07;;;;;;;4.87;2.10;;;;;;;14.86;68.60;94715.47;5071179;28;20434;-61
2023/01/19 10:50:39;;;;;;;1.63;1.53;;;;;;;14.88;67.55;94710.59;5070359;28;20513;-61
2023/01/19 10:53:20;;;;;;;11.47;1.90;;;;;;;14.87;67.07;94704.50;5070612;28;20918;-60
2023/01/19 10:56:11;;;;;;;3.33;3.17;;;;;;;14.83;68.24;94714.22;5071194;28;20495;-61
2023/01/19 10:58:40;;;;;;;1.47;0.50;;;;;;;14.94;68.92;94702.16;5074531;28;20452;-61
2023/01/19 11:01:20;;;;;;;0.50;0.40;;;;;;;14.71;70.07;94694.56;5074694;28;20442;-62
2023/01/19 11:03:49;;;;;;;8.13;2.83;;;;;;;14.72;69.29;94688.94;5074265;28;20456;-61
2023/01/19 11:06:24;;;;;;;6.23;1.07;;;;;;;14.90;68.37;94709.19;5074254;28;20886;-61
2023/01/19 11:09:08;;;;;;;1.10;0.60;;;;;;;14.84;68.74;94702.47;5074449;28;20424;-60
2023/01/19 11:11:45;;;;;;;0.70;0.70;;;;;;;14.86;68.44;94702.94;5073800;28;20965;-60
2023/01/19 11:14:17;;;;;;;3.60;1.60;;;;;;;14.81;69.10;94704.94;5073145;28;20433;-59
2023/01/19 11:16:48;;;;;;;2.67;1.07;;;;;;;14.80;68.75;94706.81;5073927;28;20504;-60
2023/01/19 11:19:29;;;;;;;0.70;0.30;;;;;;;14.85;68.00;94705.91;5073811;28;20479;-60
2023/01/19 11:22:20;;;;;;;0.50;0.50;;;;;;;14.88;69.66;94702.59;5073454;28;20524;-61
2023/01/19 11:24:49;;;;;;;0.30;0.30;;;;;;;14.98;68.93;94715.66;5073545;28;20468;-61
2023/01/19 11:27:21;;;;;;;0.77;0.77;;;;;;;15.03;68.81;94707.50;5073902;28;20425;-61
2023/01/19 11:29:54;;;;;;;5.27;2.73;;;;;;;14.93;68.67;94708.59;5073803;28;20487;-61
2023/01/19 11:32:27;;;;;;;2.73;1.70;;;;;;;14.95;68.24;94705.63;5073606;28;20482;-61
2023/01/19 11:34:55;;;;;;;1.47;1.37;;;;;;;15.00;66.04;94700.91;5073378;28;20473;-61
2023/01/19 11:37:30;;;;;;;7.23;0.47;;;;;;;15.06;64.33;94670.31;5073251;28;20434;-61
2023/01/19 11:40:01;;;;;;;0.50;0.40;;;;;;;15.03;65.43;94670.13;5073284;28;20490;-61
2023/01/19 11:42:35;;;;;;;0.73;0.73;;;;;;;15.04;63.46;94672.50;5073496;28;20450;-61
2023/01/19 11:45:12;;;;;;;1.60;1.60;;;;;;;15.17;61.36;94662.78;5073083;28;21023;-61
2023/01/19 11:47:43;;;;;;;0.40;0.30;;;;;;;15.16;61.33;94680.69;5073155;28;20425;-61
2023/01/19 11:50:23;;;;;;;12.60;0.60;;;;;;;14.91;62.56;94632.63;5072601;28;20473;-60
2023/01/19 11:52:57;;;;;;;2.43;1.50;;;;;;;15.16;63.05;94645.97;5073039;28;20422;-61
2023/01/19 11:55:36;;;;;;;3.90;1.43;;;;;;;15.10;63.72;94641.13;5072978;28;20528;-61
2023/01/19 11:58:06;;;;;;;1.07;0.87;;;;;;;15.26;63.46;94644.88;5072803;28;20464;-60
2023/01/19 12:00:38;;;;;;;1.13;1.13;;;;;;;15.30;64.60;94653.06;5072669;28;20422;-61
2023/01/19 12:03:15;;;;;;;1.03;0.40;;;;;;;15.25;65.32;94644.09;5073038;28;20426;-62